Time;durP1;ratioP1;P1;durP2;ratioP2;P2;SDS_P1;SDS_P2;PMS_P1;PMS_P2;Temp;Humidity;BMP_temperature;BMP_pressure;BME280_temperature;BME280_humidity;BME280_pressure;Samples;Min_cycle;Max_cycle;Signal;HPM_P1;HPM_P2
2022/03/19 00:00:26;;;;;;;31.25;10.02;;;8.90;99.90;;;;;;5012140;28;20032;-69
2022/03/19 00:02:52;;;;;;;25.55;9.18;;;8.80;99.90;;;;;;4995903;28;20430;-70
2022/03/19 00:05:18;;;;;;;23.30;8.65;;;8.80;99.90;;;;;;5013395;28;20021;-69
2022/03/19 00:07:43;;;;;;;28.10;9.10;;;8.80;99.90;;;;;;5012755;28;20485;-69
2022/03/19 00:10:09;;;;;;;24.92;8.50;;;8.70;99.90;;;;;;5012685;28;20088;-69
2022/03/19 00:12:38;;;;;;;20.83;8.57;;;8.70;99.90;;;;;;5013017;28;20025;-70
2022/03/19 00:15:04;;;;;;;24.50;8.07;;;8.70;99.90;;;;;;5012767;28;20490;-70
2022/03/19 00:17:30;;;;;;;24.25;8.82;;;8.70;99.90;;;;;;5012777;28;20474;-69
2022/03/19 00:19:55;;;;;;;29.60;9.15;;;8.60;99.90;;;;;;5013059;28;20050;-69
2022/03/19 00:22:21;;;;;;;22.00;8.88;;;8.60;99.90;;;;;;4994374;28;20378;-69
2022/03/19 00:24:47;;;;;;;26.60;8.57;;;8.60;99.90;;;;;;5012699;28;20022;-70
2022/03/19 00:27:12;;;;;;;25.98;8.88;;;8.60;99.90;;;;;;4994927;28;20129;-69
2022/03/19 00:29:38;;;;;;;24.95;8.82;;;8.60;99.90;;;;;;5012226;28;20053;-69
2022/03/19 00:32:03;;;;;;;22.02;9.23;;;8.60;99.90;;;;;;5012195;28;20399;-70
2022/03/19 00:34:29;;;;;;;26.73;8.15;;;8.50;99.90;;;;;;5012414;28;20504;-69
2022/03/19 00:36:56;;;;;;;24.80;8.45;;;8.40;99.90;;;;;;5011984;28;20112;-69
2022/03/19 00:39:21;;;;;;;23.02;8.52;;;8.40;99.90;;;;;;5012579;28;20427;-69
2022/03/19 00:41:47;;;;;;;23.85;7.70;;;8.40;99.90;;;;;;5012345;28;20073;-70
2022/03/19 00:44:12;;;;;;;25.98;7.60;;;8.40;99.90;;;;;;5012434;28;20021;-69
2022/03/19 00:46:38;;;;;;;23.77;8.15;;;8.40;99.90;;;;;;5012877;28;20026;-69
2022/03/19 00:49:03;;;;;;;20.60;8.10;;;8.40;99.90;;;;;;5012153;28;20037;-69
2022/03/19 00:51:31;;;;;;;22.33;8.15;;;8.40;99.90;;;;;;5012065;28;20034;-70
2022/03/19 00:53:56;;;;;;;23.23;7.93;;;8.40;99.90;;;;;;5012333;28;20033;-70
2022/03/19 00:56:22;;;;;;;22.45;7.90;;;8.40;99.90;;;;;;5012162;28;20022;-69
2022/03/19 00:58:47;;;;;;;21.30;7.88;;;8.40;99.90;;;;;;5012402;28;20068;-70
2022/03/19 01:01:13;;;;;;;22.52;8.13;;;8.40;99.90;;;;;;5011910;28;20105;-70
2022/03/19 01:03:39;;;;;;;29.38;8.93;;;8.40;99.90;;;;;;5011573;28;20268;-69
2022/03/19 01:06:04;;;;;;;20.63;7.95;;;8.30;99.90;;;;;;5011149;28;20025;-69
2022/03/19 01:08:30;;;;;;;25.92;8.23;;;8.30;99.90;;;;;;5011125;28;20065;-69
2022/03/19 01:10:56;;;;;;;21.58;7.50;;;8.30;99.90;;;;;;5009550;28;20061;-69
2022/03/19 01:13:21;;;;;;;21.65;8.07;;;8.30;99.90;;;;;;4994087;28;20092;-70
2022/03/19 01:15:47;;;;;;;25.45;8.40;;;8.30;99.90;;;;;;5011184;28;20030;-70
2022/03/19 01:18:13;;;;;;;20.17;7.95;;;8.30;99.90;;;;;;5011224;28;20058;-69
2022/03/19 01:20:38;;;;;;;24.42;8.18;;;8.20;99.90;;;;;;5011391;28;20030;-70
2022/03/19 01:23:04;;;;;;;21.55;8.27;;;8.20;99.90;;;;;;5011648;28;20048;-70
2022/03/19 01:25:30;;;;;;;24.05;8.15;;;8.20;99.90;;;;;;5011704;28;20088;-70
2022/03/19 01:27:55;;;;;;;25.65;8.55;;;8.20;99.90;;;;;;5011274;28;20088;-70
2022/03/19 01:30:22;;;;;;;22.60;8.13;;;8.20;99.90;;;;;;4993493;28;20030;-70
2022/03/19 01:32:49;;;;;;;17.75;8.18;;;8.20;99.90;;;;;;5011479;28;20018;-69
2022/03/19 01:35:16;;;;;;;24.40;8.70;;;8.10;99.90;;;;;;5011194;28;20367;-69
2022/03/19 01:37:42;;;;;;;22.70;8.82;;;8.10;99.90;;;;;;5010857;28;20141;-70
2022/03/19 01:40:10;;;;;;;25.13;8.57;;;8.10;99.90;;;;;;5011041;28;20076;-69
2022/03/19 01:42:39;;;;;;;24.30;8.75;;;8.10;99.90;;;;;;5010853;28;20057;-69
2022/03/19 01:45:08;;;;;;;20.88;8.30;;;8.10;99.90;;;;;;5011453;28;20113;-70
2022/03/19 01:47:33;;;;;;;24.55;8.95;;;8.10;99.90;;;;;;5011346;28;20030;-70
2022/03/19 01:49:59;;;;;;;22.65;8.20;;;8.00;99.90;;;;;;5011178;28;20025;-69
2022/03/19 01:52:25;;;;;;;23.23;8.90;;;8.00;99.90;;;;;;5011220;28;20022;-70
2022/03/19 01:54:52;;;;;;;28.65;9.63;;;8.00;99.90;;;;;;5010780;28;20026;-70
2022/03/19 01:57:21;;;;;;;28.77;9.23;;;7.90;99.90;;;;;;5011658;28;20030;-69
2022/03/19 01:59:47;;;;;;;26.13;8.98;;;7.90;99.90;;;;;;5005432;28;20030;-69
2022/03/19 02:02:13;;;;;;;25.35;8.95;;;7.90;99.90;;;;;;5008827;28;20025;-70
2022/03/19 02:04:41;;;;;;;27.42;9.23;;;7.90;99.90;;;;;;5010807;28;20104;-69
2022/03/19 02:07:08;;;;;;;28.23;9.25;;;7.80;99.90;;;;;;5011210;28;20315;-69
2022/03/19 02:09:34;;;;;;;27.67;8.82;;;7.80;99.90;;;;;;5010644;28;20029;-69
2022/03/19 02:12:00;;;;;;;21.88;8.38;;;7.80;99.90;;;;;;5010815;28;20029;-69
2022/03/19 02:14:26;;;;;;;26.88;8.40;;;7.80;99.90;;;;;;5010008;28;20044;-70
2022/03/19 02:16:53;;;;;;;28.45;8.15;;;7.80;99.90;;;;;;5010036;28;20033;-69
2022/03/19 02:19:19;;;;;;;23.83;7.63;;;7.80;99.90;;;;;;4992922;28;20080;-69
2022/03/19 02:21:47;;;;;;;30.50;8.73;;;7.70;99.90;;;;;;4993133;28;20486;-70
2022/03/19 02:26:58;;;;;;;21.33;7.57;;;7.70;99.90;;;;;;5010901;28;20036;-69
2022/03/19 02:29:24;;;;;;;27.25;8.25;;;7.70;99.90;;;;;;5009826;28;20052;-69
2022/03/19 02:31:55;;;;;;;30.13;8.27;;;7.70;99.90;;;;;;5010535;28;20093;-69
2022/03/19 02:34:21;;;;;;;24.45;7.13;;;7.60;99.90;;;;;;4992503;28;20116;-70
2022/03/19 02:36:47;;;;;;;20.48;7.13;;;7.60;99.90;;;;;;5010511;28;20029;-70
2022/03/19 02:39:18;;;;;;;21.85;7.35;;;7.60;99.90;;;;;;5010217;28;20032;-69
2022/03/19 02:41:49;;;;;;;27.25;7.28;;;7.60;99.90;;;;;;4992102;28;20044;-70
2022/03/19 02:44:17;;;;;;;25.33;6.95;;;7.60;99.90;;;;;;5009838;28;20112;-70
2022/03/19 02:46:54;;;;;;;21.13;6.90;;;7.60;99.90;;;;;;4992870;28;20512;-69
2022/03/19 02:49:21;;;;;;;18.77;6.18;;;7.60;99.90;;;;;;5010360;28;20401;-69
2022/03/19 02:51:48;;;;;;;22.85;6.63;;;7.50;99.90;;;;;;5010126;28;20426;-69
2022/03/19 02:54:17;;;;;;;18.02;7.15;;;7.50;99.90;;;;;;5009535;28;20089;-69
2022/03/19 02:56:44;;;;;;;19.25;6.40;;;7.50;99.90;;;;;;5010436;28;20482;-69
2022/03/19 02:59:17;;;;;;;21.02;7.10;;;7.40;99.90;;;;;;5010800;28;20540;-70
2022/03/19 03:01:47;;;;;;;21.17;7.00;;;7.40;99.90;;;;;;5010435;28;20030;-69
2022/03/19 03:04:13;;;;;;;25.48;7.75;;;7.40;99.90;;;;;;5010134;28;20064;-69
2022/03/19 03:06:41;;;;;;;25.27;8.18;;;7.40;99.90;;;;;;5010340;28;20029;-69
2022/03/19 03:09:07;;;;;;;24.13;8.75;;;7.40;99.90;;;;;;5009994;28;20034;-69
2022/03/19 03:11:34;;;;;;;26.33;8.82;;;7.40;99.90;;;;;;5009642;28;20022;-69
2022/03/19 03:14:00;;;;;;;26.67;8.05;;;7.30;99.90;;;;;;5010096;28;20026;-69
2022/03/19 03:16:29;;;;;;;22.05;8.15;;;7.30;99.90;;;;;;5010164;28;20049;-70
2022/03/19 03:18:55;;;;;;;27.25;9.10;;;7.30;99.90;;;;;;5010164;28;20080;-70
2022/03/19 03:21:21;;;;;;;22.70;8.45;;;7.30;99.90;;;;;;5009818;28;20038;-69
2022/03/19 03:23:47;;;;;;;26.90;8.18;;;7.20;99.90;;;;;;5009727;28;20105;-70
2022/03/19 03:26:12;;;;;;;23.08;8.50;;;7.20;99.90;;;;;;5010088;28;20466;-69
2022/03/19 03:28:38;;;;;;;24.83;8.57;;;7.20;99.90;;;;;;5010042;28;20034;-70
2022/03/19 03:31:03;;;;;;;18.10;8.15;;;7.20;99.90;;;;;;5009765;28;20026;-70
2022/03/19 03:33:29;;;;;;;24.27;8.57;;;7.20;99.90;;;;;;5010065;28;20095;-70
2022/03/19 03:35:55;;;;;;;23.65;9.48;;;7.20;99.90;;;;;;5013763;28;20138;-70
2022/03/19 03:38:20;;;;;;;31.50;9.25;;;7.20;99.90;;;;;;4996126;28;20033;-69
2022/03/19 03:40:46;;;;;;;20.63;8.57;;;7.20;99.90;;;;;;5013048;28;20394;-69
2022/03/19 03:43:12;;;;;;;29.58;9.43;;;7.10;99.90;;;;;;5013140;28;20393;-72
2022/03/19 03:45:37;;;;;;;30.10;9.77;;;7.20;99.90;;;;;;4995789;28;20037;-69
2022/03/19 03:48:03;;;;;;;25.50;8.60;;;7.10;99.90;;;;;;5013344;28;20045;-69
2022/03/19 03:50:29;;;;;;;27.45;9.23;;;7.10;99.90;;;;;;5012571;28;20101;-70
2022/03/19 03:52:55;;;;;;;28.73;9.27;;;7.10;99.90;;;;;;5013435;28;20096;-69
2022/03/19 03:55:21;;;;;;;23.77;9.57;;;7.10;99.90;;;;;;4995179;28;20053;-69
2022/03/19 03:57:47;;;;;;;27.92;9.52;;;7.10;99.90;;;;;;5012797;28;20029;-70
2022/03/19 04:00:13;;;;;;;27.85;9.50;;;7.00;99.90;;;;;;5013087;28;20062;-69
2022/03/19 04:02:39;;;;;;;26.88;9.13;;;7.00;99.90;;;;;;5013030;28;20026;-69
2022/03/19 04:05:06;;;;;;;26.30;9.15;;;7.00;99.90;;;;;;5012941;28;20022;-69
2022/03/19 04:07:32;;;;;;;22.17;7.72;;;7.00;99.90;;;;;;5012938;28;20033;-69
2022/03/19 04:09:57;;;;;;;23.45;7.65;;;7.00;99.90;;;;;;5013051;28;20041;-69
2022/03/19 04:12:23;;;;;;;17.02;7.00;;;7.00;99.90;;;;;;5012685;28;20030;-69
2022/03/19 04:14:52;;;;;;;21.50;7.65;;;6.90;99.90;;;;;;5013190;28;20022;-69
2022/03/19 04:17:18;;;;;;;20.42;7.15;;;7.00;99.90;;;;;;4995109;28;20042;-69
2022/03/19 04:19:45;;;;;;;23.63;7.70;;;6.90;99.90;;;;;;4994611;28;20061;-69
2022/03/19 04:22:10;;;;;;;22.23;8.05;;;6.90;99.90;;;;;;5012182;28;20026;-69
2022/03/19 04:24:36;;;;;;;17.85;7.47;;;6.90;99.90;;;;;;5012439;28;20026;-70
2022/03/19 04:27:02;;;;;;;21.55;8.02;;;6.80;99.90;;;;;;5011946;28;20513;-69
2022/03/19 04:29:28;;;;;;;25.27;8.18;;;6.80;99.90;;;;;;5013074;28;20022;-69
2022/03/19 04:31:54;;;;;;;25.05;8.18;;;6.80;99.90;;;;;;5012556;28;20034;-69
2022/03/19 04:34:19;;;;;;;24.92;8.55;;;6.80;99.90;;;;;;5012537;28;20379;-69
2022/03/19 04:36:45;;;;;;;23.17;8.57;;;6.70;99.90;;;;;;5012704;28;20443;-69
2022/03/19 04:39:11;;;;;;;24.85;8.25;;;6.70;99.90;;;;;;5012501;28;20100;-69
2022/03/19 04:41:37;;;;;;;20.60;8.38;;;6.70;99.90;;;;;;5012738;28;20057;-69
2022/03/19 04:44:04;;;;;;;23.05;8.88;;;6.70;99.90;;;;;;5011911;28;20125;-70
2022/03/19 04:46:30;;;;;;;22.55;8.48;;;6.70;99.90;;;;;;5011844;28;20038;-69
2022/03/19 04:48:56;;;;;;;23.02;8.95;;;6.70;99.90;;;;;;5011993;28;20091;-69
2022/03/19 04:51:29;;;;;;;22.98;8.80;;;6.70;99.90;;;;;;5012519;28;20030;-70
2022/03/19 04:53:55;;;;;;;24.15;7.95;;;6.70;99.90;;;;;;5012661;28;20044;-69
2022/03/19 04:56:24;;;;;;;21.80;7.90;;;6.60;99.90;;;;;;5011802;28;20022;-68
2022/03/19 04:58:55;;;;;;;25.52;8.68;;;6.60;99.90;;;;;;5012025;28;20457;-70
2022/03/19 05:01:21;;;;;;;26.90;8.43;;;6.70;99.90;;;;;;4994304;28;20112;-69
2022/03/19 05:03:47;;;;;;;26.65;8.93;;;6.60;99.90;;;;;;4994341;28;20101;-69
2022/03/19 05:06:12;;;;;;;24.13;8.68;;;6.60;99.90;;;;;;5012221;28;20061;-69
2022/03/19 05:08:38;;;;;;;26.73;8.00;;;6.60;99.90;;;;;;5011883;28;20386;-69
2022/03/19 05:11:12;;;;;;;27.25;8.02;;;6.60;99.90;;;;;;5012322;28;20033;-69
2022/03/19 05:13:48;;;;;;;24.60;7.97;;;6.60;99.90;;;;;;5011712;28;20429;-69
2022/03/19 05:16:14;;;;;;;30.88;7.85;;;6.60;99.90;;;;;;5012096;28;20076;-69
2022/03/19 05:18:40;;;;;;;27.35;8.98;;;6.50;99.90;;;;;;5011698;28;20042;-69
2022/03/19 05:21:06;;;;;;;23.67;9.18;;;6.50;99.90;;;;;;5011106;28;20022;-69
2022/03/19 05:23:32;;;;;;;29.88;10.45;;;6.50;99.90;;;;;;5011050;28;20160;-69
2022/03/19 05:25:58;;;;;;;26.42;9.05;;;6.50;99.90;;;;;;5012099;28;20064;-69
2022/03/19 05:28:24;;;;;;;25.33;9.35;;;6.50;99.90;;;;;;5011564;28;20030;-70
2022/03/19 05:30:51;;;;;;;26.98;9.68;;;6.50;99.90;;;;;;5011398;28;20415;-69
2022/03/19 05:33:17;;;;;;;26.95;8.88;;;6.40;99.90;;;;;;5011625;28;20041;-70
2022/03/19 05:35:44;;;;;;;20.45;8.43;;;6.40;99.90;;;;;;5010819;28;20032;-69
2022/03/19 05:38:10;;;;;;;19.95;9.13;;;6.40;99.90;;;;;;5011143;28;20373;-69
2022/03/19 05:40:36;;;;;;;23.98;8.25;;;6.40;99.90;;;;;;5010984;28;20037;-69
2022/03/19 05:43:01;;;;;;;27.02;8.60;;;6.40;99.90;;;;;;5010461;28;20036;-69
2022/03/19 05:45:27;;;;;;;28.42;8.90;;;6.30;99.90;;;;;;5011042;28;20465;-69
2022/03/19 05:47:53;;;;;;;25.67;8.48;;;6.30;99.90;;;;;;4992832;28;20112;-69
2022/03/19 05:50:18;;;;;;;25.92;8.75;;;6.30;99.90;;;;;;5010894;28;20062;-69
2022/03/19 05:52:47;;;;;;;26.15;9.43;;;6.30;99.90;;;;;;5011162;28;20433;-69
2022/03/19 05:55:14;;;;;;;26.77;9.05;;;6.30;99.90;;;;;;5011148;28;20381;-69
2022/03/19 05:57:40;;;;;;;25.67;9.60;;;6.30;99.90;;;;;;5009573;28;20021;-71
2022/03/19 06:00:08;;;;;;;22.98;9.27;;;6.30;99.90;;;;;;5010847;28;20029;-70
2022/03/19 06:02:43;;;;;;;24.85;10.25;;;6.30;99.90;;;;;;4993019;28;20378;-70
2022/03/19 06:05:10;;;;;;;27.25;10.40;;;6.30;99.90;;;;;;5011038;28;20026;-69
2022/03/19 06:07:35;;;;;;;22.77;9.80;;;6.30;99.90;;;;;;5010726;28;20022;-70
2022/03/19 06:10:01;;;;;;;24.48;10.30;;;6.30;99.90;;;;;;5010956;28;20045;-69
2022/03/19 06:12:27;;;;;;;30.67;10.20;;;6.30;99.90;;;;;;5010650;28;20079;-70
2022/03/19 06:14:53;;;;;;;28.30;10.50;;;6.30;99.90;;;;;;5010223;28;20060;-70
2022/03/19 06:17:20;;;;;;;31.80;10.80;;;6.30;99.90;;;;;;5010905;28;20022;-70
2022/03/19 06:19:46;;;;;;;23.10;10.48;;;6.40;99.90;;;;;;5010125;28;20409;-69
2022/03/19 06:22:11;;;;;;;27.60;10.40;;;6.30;99.90;;;;;;5010089;28;20018;-69
2022/03/19 06:24:37;;;;;;;29.98;10.65;;;6.40;99.90;;;;;;5009991;28;20041;-70
2022/03/19 06:27:03;;;;;;;26.70;10.80;;;6.30;99.90;;;;;;5010235;28;20018;-70
2022/03/19 06:29:29;;;;;;;27.65;11.13;;;6.40;99.90;;;;;;5010781;28;20034;-70
2022/03/19 06:31:54;;;;;;;25.70;10.52;;;6.40;99.90;;;;;;5002615;28;20091;-70
2022/03/19 06:34:20;;;;;;;28.58;10.40;;;6.40;99.90;;;;;;4989350;28;20027;-69
2022/03/19 06:39:29;;;;;;;29.20;10.05;;;6.40;99.90;;;;;;4991626;28;20037;-70
2022/03/19 06:41:55;;;;;;;28.55;9.93;;;6.40;99.90;;;;;;4991464;28;20060;-70
2022/03/19 06:44:21;;;;;;;26.35;9.30;;;6.50;99.90;;;;;;4987264;28;20375;-70
2022/03/19 06:46:46;;;;;;;30.40;10.13;;;6.50;99.90;;;;;;5008260;28;20044;-71
2022/03/19 06:49:12;;;;;;;29.08;10.45;;;6.50;99.90;;;;;;4990678;28;20026;-70
2022/03/19 06:51:38;;;;;;;27.10;9.63;;;6.50;99.90;;;;;;4996203;28;20028;-70
2022/03/19 06:54:04;;;;;;;20.67;9.60;;;6.60;99.90;;;;;;5006337;28;20025;-70
2022/03/19 06:56:30;;;;;;;20.23;9.52;;;6.50;99.90;;;;;;5015895;28;20025;-69
2022/03/19 06:58:55;;;;;;;25.17;9.93;;;6.60;99.90;;;;;;5029774;28;20405;-70
2022/03/19 07:01:21;;;;;;;20.80;10.05;;;6.60;99.90;;;;;;5030021;28;20029;-69
2022/03/19 07:03:47;;;;;;;28.50;10.02;;;6.60;99.90;;;;;;5028126;28;20034;-71
2022/03/19 07:06:15;;;;;;;28.40;10.05;;;6.70;99.90;;;;;;4990740;28;20117;-70
2022/03/19 07:08:41;;;;;;;27.98;10.18;;;6.70;99.90;;;;;;4990208;28;20486;-69
2022/03/19 07:11:07;;;;;;;26.52;10.02;;;6.70;99.90;;;;;;4994341;28;20038;-70
2022/03/19 07:13:33;;;;;;;27.50;9.77;;;6.80;99.90;;;;;;5011505;28;20385;-69
2022/03/19 07:15:59;;;;;;;28.27;9.77;;;6.80;99.90;;;;;;4999954;28;20097;-70
2022/03/19 07:18:25;;;;;;;23.70;9.48;;;6.80;99.90;;;;;;5003847;28;20142;-70
2022/03/19 07:20:50;;;;;;;28.75;9.73;;;6.90;99.90;;;;;;4993420;28;20477;-70
2022/03/19 07:23:16;;;;;;;23.50;10.15;;;6.90;99.90;;;;;;4994103;28;20018;-70
2022/03/19 07:25:43;;;;;;;22.73;9.23;;;7.00;99.90;;;;;;4993693;28;20030;-73
2022/03/19 07:28:14;;;;;;;23.75;9.55;;;7.00;99.90;;;;;;4982384;28;20069;-69
2022/03/19 07:30:40;;;;;;;23.17;8.77;;;7.10;99.90;;;;;;5013540;28;20022;-69
2022/03/19 07:33:07;;;;;;;28.23;10.38;;;7.10;99.90;;;;;;5013832;28;20029;-70
2022/03/19 07:35:33;;;;;;;23.27;10.20;;;7.20;99.90;;;;;;5012946;28;20036;-70
2022/03/19 07:37:59;;;;;;;25.58;9.50;;;7.20;99.90;;;;;;5012983;28;20394;-68
2022/03/19 07:43:11;;;;;;;23.77;9.73;;;7.40;99.90;;;;;;5013871;28;20037;-69
2022/03/19 07:45:38;;;;;;;22.70;9.52;;;7.40;99.90;;;;;;5013412;28;20294;-70
2022/03/19 07:48:04;;;;;;;18.83;9.25;;;7.40;99.90;;;;;;5013373;28;20080;-69
2022/03/19 07:50:30;;;;;;;24.83;9.38;;;7.50;99.90;;;;;;4994129;28;20049;-69
2022/03/19 07:52:56;;;;;;;27.23;10.32;;;7.50;99.90;;;;;;4993173;28;20026;-69
2022/03/19 07:55:22;;;;;;;23.38;9.82;;;7.60;99.90;;;;;;4993312;28;20019;-69
2022/03/19 07:57:47;;;;;;;22.00;9.57;;;7.60;99.90;;;;;;4993758;28;20030;-69
2022/03/19 08:00:14;;;;;;;23.52;8.52;;;7.70;99.90;;;;;;4976129;28;20331;-70
2022/03/19 08:02:40;;;;;;;21.23;9.05;;;7.80;99.90;;;;;;4993316;28;20038;-70
2022/03/19 08:05:07;;;;;;;23.88;9.02;;;7.90;99.90;;;;;;4977174;28;20296;-69
2022/03/19 08:07:32;;;;;;;26.35;9.63;;;7.90;99.90;;;;;;4975621;28;20509;-69
2022/03/19 08:09:58;;;;;;;19.80;8.45;;;8.00;99.90;;;;;;4992394;28;20026;-69
2022/03/19 08:12:27;;;;;;;28.60;9.40;;;8.10;99.90;;;;;;4993653;28;20037;-69
2022/03/19 08:14:53;;;;;;;23.30;9.55;;;8.20;99.90;;;;;;4993358;28;20034;-70
2022/03/19 08:17:18;;;;;;;20.20;8.73;;;8.30;99.90;;;;;;4993503;28;20022;-70
2022/03/19 08:19:45;;;;;;;21.15;8.95;;;8.30;99.90;;;;;;4992955;28;20054;-70
2022/03/19 08:22:12;;;;;;;20.45;8.45;;;8.40;99.90;;;;;;4992693;28;20126;-70
2022/03/19 08:24:37;;;;;;;20.38;7.85;;;8.50;99.90;;;;;;4992966;28;20109;-70
2022/03/19 08:27:03;;;;;;;23.75;8.25;;;8.60;99.90;;;;;;4993388;28;20154;-69
2022/03/19 08:29:29;;;;;;;18.45;7.93;;;8.70;99.90;;;;;;4992737;28;20041;-70
2022/03/19 08:31:56;;;;;;;22.73;8.05;;;8.90;99.90;;;;;;4992928;28;20704;-73
2022/03/19 08:34:22;;;;;;;20.52;7.15;;;9.00;99.90;;;;;;4994830;28;20390;-74
2022/03/19 08:36:48;;;;;;;17.35;6.70;;;9.10;99.90;;;;;;4994299;28;20027;-71
2022/03/19 08:41:58;;;;;;;13.68;6.13;;;9.40;99.90;;;;;;4994975;28;20056;-72
2022/03/19 08:44:25;;;;;;;21.20;5.93;;;9.50;99.90;;;;;;4994840;28;20061;-71
2022/03/19 08:46:51;;;;;;;15.63;6.05;;;9.70;99.90;;;;;;4995176;28;20026;-72
2022/03/19 08:49:16;;;;;;;18.63;5.75;;;9.80;99.90;;;;;;4993411;28;20437;-71
2022/03/19 08:51:42;;;;;;;16.13;6.13;;;9.90;99.90;;;;;;4992958;28;20420;-72
2022/03/19 08:54:15;;;;;;;18.05;5.82;;;10.00;99.90;;;;;;4992863;28;20097;-71
2022/03/19 08:56:42;;;;;;;17.20;5.50;;;10.20;99.90;;;;;;4992708;28;20552;-73
2022/03/19 08:59:09;;;;;;;19.15;5.85;;;10.30;99.90;;;;;;4994791;28;20043;-72
2022/03/19 09:01:35;;;;;;;17.90;5.60;;;10.40;99.90;;;;;;4992397;28;20022;-72
2022/03/19 09:04:00;;;;;;;15.65;5.25;;;10.60;99.90;;;;;;4991973;28;20032;-72
2022/03/19 09:06:26;;;;;;;14.73;4.80;;;10.70;99.90;;;;;;4992088;28;20526;-72
2022/03/19 09:08:52;;;;;;;17.48;4.95;;;10.80;99.90;;;;;;4997575;28;20030;-72
2022/03/19 09:11:19;;;;;;;18.20;4.72;;;10.90;99.90;;;;;;4991472;28;20061;-73
2022/03/19 09:13:48;;;;;;;18.92;5.25;;;11.00;99.90;;;;;;4975084;28;20030;-72
2022/03/19 09:16:14;;;;;;;13.50;4.38;;;11.10;99.90;;;;;;4999510;28;20038;-72
2022/03/19 09:18:40;;;;;;;12.68;4.38;;;11.20;99.90;;;;;;5002577;28;20100;-74
2022/03/19 09:21:06;;;;;;;19.35;4.40;;;11.30;99.90;;;;;;4993351;28;20429;-74
2022/03/19 09:23:32;;;;;;;15.23;3.80;;;11.40;99.90;;;;;;4995390;28;20069;-72
2022/03/19 09:25:57;;;;;;;9.30;3.35;;;11.50;99.90;;;;;;4993191;28;20057;-72
2022/03/19 09:28:23;;;;;;;14.75;3.67;;;11.60;99.90;;;;;;4991661;28;20045;-72
2022/03/19 09:30:49;;;;;;;11.75;3.67;;;11.60;99.90;;;;;;4992739;28;20022;-70
2022/03/19 09:33:14;;;;;;;11.45;3.40;;;11.70;99.90;;;;;;4992490;28;20058;-73
2022/03/19 09:35:40;;;;;;;8.85;3.20;;;11.80;99.90;;;;;;4995770;28;20122;-74
2022/03/19 09:38:06;;;;;;;15.77;3.65;;;11.90;99.90;;;;;;5001057;28;20072;-72
2022/03/19 09:40:32;;;;;;;12.40;3.30;;;12.00;99.10;;;;;;4993342;28;20101;-72
2022/03/19 09:42:58;;;;;;;12.80;3.13;;;12.00;97.60;;;;;;4993159;28;20485;-72
2022/03/19 09:45:26;;;;;;;12.18;3.35;;;12.10;96.80;;;;;;4993513;28;20505;-72
2022/03/19 09:47:53;;;;;;;12.60;2.92;;;12.10;95.50;;;;;;4992095;28;20030;-72
2022/03/19 09:50:19;;;;;;;9.65;3.53;;;12.10;94.00;;;;;;4991894;28;20026;-71
2022/03/19 09:52:49;;;;;;;8.55;3.00;;;12.10;93.30;;;;;;4991837;28;20427;-73
2022/03/19 09:55:16;;;;;;;8.23;3.00;;;12.20;91.80;;;;;;4991718;28;20026;-73
2022/03/19 09:57:42;;;;;;;9.90;2.97;;;12.30;91.50;;;;;;4991210;28;20106;-72
2022/03/19 10:00:09;;;;;;;6.70;3.00;;;12.40;89.90;;;;;;4991655;28;20486;-72
2022/03/19 10:03:02;;;;;;;9.70;3.20;;;12.50;88.60;;;;;;4991667;28;20050;-72
2022/03/19 10:08:36;;;;;;;9.60;2.90;;;12.60;82.10;;;;;;4991725;28;20089;-72
2022/03/19 10:11:09;;;;;;;7.25;2.70;;;12.60;79.90;;;;;;4992306;28;20038;-72
2022/03/19 10:13:42;;;;;;;8.38;2.83;;;12.50;77.00;;;;;;4991151;28;20084;-73
2022/03/19 10:16:09;;;;;;;7.55;3.40;;;12.60;77.40;;;;;;4991076;28;20077;-73
2022/03/19 10:18:35;;;;;;;15.85;3.05;;;12.60;78.30;;;;;;4991310;28;20085;-72
2022/03/19 10:21:03;;;;;;;9.43;2.97;;;12.70;77.50;;;;;;4991076;28;20034;-72
2022/03/19 10:23:35;;;;;;;9.63;3.30;;;12.70;74.50;;;;;;4991766;28;20019;-73
2022/03/19 10:26:01;;;;;;;7.60;3.08;;;12.70;74.80;;;;;;4974022;28;20054;-72
2022/03/19 10:28:32;;;;;;;8.25;2.80;;;12.80;75.30;;;;;;4990769;28;20063;-72
2022/03/19 10:30:58;;;;;;;13.70;3.40;;;12.90;73.70;;;;;;4991328;28;20113;-72
2022/03/19 10:33:30;;;;;;;11.73;2.92;;;12.90;72.70;;;;;;4974019;28;20490;-73
2022/03/19 10:36:10;;;;;;;10.63;3.20;;;13.00;73.80;;;;;;4990682;28;20042;-73
2022/03/19 10:38:44;;;;;;;14.43;3.63;;;13.20;72.70;;;;;;4991170;28;20058;-73
2022/03/19 10:41:12;;;;;;;9.07;3.22;;;13.20;72.90;;;;;;4991337;28;20019;-73
2022/03/19 10:43:38;;;;;;;8.77;3.10;;;13.30;72.80;;;;;;4990337;28;20561;-73
2022/03/19 10:46:04;;;;;;;11.90;3.45;;;13.40;72.10;;;;;;4991299;28;20025;-73
2022/03/19 10:48:31;;;;;;;13.48;3.72;;;13.50;70.60;;;;;;4990851;28;20113;-72
2022/03/19 10:50:57;;;;;;;11.57;3.20;;;13.50;69.60;;;;;;4991174;28;20045;-72
2022/03/19 10:53:24;;;;;;;13.75;3.50;;;13.60;68.70;;;;;;4991159;28;20029;-72
2022/03/19 10:55:51;;;;;;;9.68;3.03;;;13.60;68.70;;;;;;4990987;28;20422;-72
2022/03/19 10:58:16;;;;;;;11.07;3.60;;;13.70;65.50;;;;;;4990774;28;20125;-73
2022/03/19 11:00:47;;;;;;;13.77;3.22;;;13.70;63.60;;;;;;5001247;28;20108;-73
2022/03/19 11:03:18;;;;;;;10.38;3.13;;;13.70;63.60;;;;;;4999526;28;20493;-75
2022/03/19 11:05:45;;;;;;;10.73;3.05;;;13.70;63.20;;;;;;4997593;28;20037;-73
2022/03/19 11:08:12;;;;;;;11.18;3.03;;;13.80;64.10;;;;;;4993599;28;20037;-74
2022/03/19 11:10:39;;;;;;;11.25;3.22;;;13.90;61.40;;;;;;4974879;28;20049;-74
2022/03/19 11:13:06;;;;;;;7.78;3.00;;;14.00;62.60;;;;;;5009747;28;20068;-73
2022/03/19 11:15:35;;;;;;;6.53;2.45;;;14.10;60.90;;;;;;5010146;28;20025;-74
2022/03/19 11:18:05;;;;;;;9.90;2.90;;;14.20;59.40;;;;;;5001512;28;20054;-76
2022/03/19 11:20:31;;;;;;;10.93;2.97;;;14.30;58.50;;;;;;4992506;28;20434;-78
2022/03/19 11:22:59;;;;;;;6.63;2.17;;;14.30;57.80;;;;;;4976040;28;20031;-75
2022/03/19 11:25:30;;;;;;;10.18;2.28;;;14.40;56.50;;;;;;4991697;28;20085;-73
2022/03/19 11:28:10;;;;;;;6.03;1.88;;;14.50;55.70;;;;;;4990124;28;20026;-73
2022/03/19 11:30:45;;;;;;;3.95;2.00;;;14.50;52.00;;;;;;4993207;28;20462;-73
2022/03/19 11:33:21;;;;;;;8.33;1.90;;;14.50;51.30;;;;;;5001554;28;20042;-75
2022/03/19 11:36:09;;;;;;;6.20;1.80;;;14.50;51.40;;;;;;4991435;28;20034;-75
2022/03/19 11:38:48;;;;;;;9.25;2.25;;;14.60;50.60;;;;;;4991866;28;20100;-72
2022/03/19 11:41:22;;;;;;;5.45;1.73;;;14.60;49.40;;;;;;4993567;28;20034;-72
2022/03/19 11:43:49;;;;;;;7.85;2.17;;;14.60;48.40;;;;;;4998215;28;20118;-72
2022/03/19 11:46:15;;;;;;;4.65;1.73;;;14.70;46.90;;;;;;4989939;28;20022;-73
2022/03/19 11:49:00;;;;;;;6.55;1.67;;;14.70;47.80;;;;;;4989945;28;20022;-72
2022/03/19 11:51:25;;;;;;;4.50;1.50;;;14.80;45.90;;;;;;4990546;28;20045;-73
2022/03/19 11:54:12;;;;;;;5.85;1.67;;;14.80;45.40;;;;;;4990058;28;20026;-72
2022/03/19 11:56:44;;;;;;;4.30;1.60;;;14.80;45.80;;;;;;4991374;28;20069;-72
2022/03/19 11:59:15;;;;;;;5.43;1.85;;;14.90;45.10;;;;;;5009300;28;20018;-71
2022/03/19 12:02:01;;;;;;;5.63;1.52;;;14.90;44.70;;;;;;5002860;28;20026;-72
2022/03/19 12:04:47;;;;;;;4.13;1.55;;;14.90;43.70;;;;;;4993418;28;20398;-72
2022/03/19 12:07:54;;;;;;;5.30;1.90;;;14.90;44.10;;;;;;4979190;28;20413;-72
2022/03/19 12:10:27;;;;;;;5.88;1.85;;;14.90;44.20;;;;;;4993588;28;20065;-72
2022/03/19 12:12:54;;;;;;;6.88;2.15;;;15.00;43.80;;;;;;4993817;28;20109;-72
2022/03/19 12:15:31;;;;;;;5.78;1.23;;;15.10;43.90;;;;;;4993229;28;20076;-72
2022/03/19 12:18:25;;;;;;;3.40;1.35;;;15.20;43.60;;;;;;4994028;28;20033;-73
2022/03/19 12:20:52;;;;;;;4.95;1.48;;;15.20;42.80;;;;;;5005988;28;20157;-72
2022/03/19 12:23:19;;;;;;;5.65;1.48;;;15.30;41.80;;;;;;5007129;28;20026;-72
2022/03/19 12:25:58;;;;;;;5.53;1.60;;;15.30;41.90;;;;;;5008884;28;20068;-72
2022/03/19 12:28:24;;;;;;;4.10;1.50;;;15.30;41.50;;;;;;5006158;28;20458;-72
2022/03/19 12:30:50;;;;;;;3.42;1.25;;;15.40;40.80;;;;;;5006263;28;20057;-72
2022/03/19 12:33:16;;;;;;;5.05;1.60;;;15.40;40.70;;;;;;5013019;28;20521;-73
2022/03/19 12:35:43;;;;;;;3.53;1.40;;;15.40;39.40;;;;;;4996528;28;20046;-72
2022/03/19 12:38:10;;;;;;;4.63;1.88;;;15.40;39.30;;;;;;4998585;28;20030;-73
2022/03/19 12:43:37;;;;;;;3.92;1.63;;;15.40;39.30;;;;;;4946831;29;20447;-74
2022/03/19 12:46:03;;;;;;;4.25;1.42;;;15.50;41.00;;;;;;4949925;29;20153;-72
2022/03/19 12:48:31;;;;;;;5.60;1.67;;;15.60;40.60;;;;;;4944930;28;20170;-73
2022/03/19 12:50:57;;;;;;;4.22;1.80;;;15.70;39.80;;;;;;4943669;29;20040;-73
2022/03/19 12:53:40;;;;;;;3.60;1.83;;;15.70;40.00;;;;;;4931877;29;20554;-71
2022/03/19 12:56:28;;;;;;;7.22;1.90;;;15.70;40.10;;;;;;4940129;29;20374;-73
2022/03/19 12:58:57;;;;;;;9.80;2.28;;;15.70;41.30;;;;;;4950279;29;20042;-74
2022/03/19 13:01:25;;;;;;;4.95;1.83;;;15.80;41.70;;;;;;4950194;29;20030;-74
2022/03/19 13:03:59;;;;;;;8.88;2.40;;;15.80;41.20;;;;;;4945970;29;20019;-75